sensor_id;sensor_type;location;lat;lon;timestamp;P1;durP1;ratioP1;P2;durP2;ratioP2
8594;SDS011;4335;48.860;9.198;2024-03-02T00:02:12;22.83;;;16.37;;
8594;SDS011;4335;48.860;9.198;2024-03-02T00:04:46;15.07;;;12.93;;
8594;SDS011;4335;48.860;9.198;2024-03-02T00:07:16;14.27;;;11.27;;
8594;SDS011;4335;48.860;9.198;2024-03-02T00:09:44;13.67;;;10.97;;
8594;SDS011;4335;48.860;9.198;2024-03-02T00:12:12;13.77;;;11.07;;
8594;SDS011;4335;48.860;9.198;2024-03-02T00:14:45;14.80;;;11.07;;
8594;SDS011;4335;48.860;9.198;2024-03-02T00:17:17;13.67;;;10.60;;
8594;SDS011;4335;48.860;9.198;2024-03-02T00:19:51;14.97;;;11.03;;
8594;SDS011;4335;48.860;9.198;2024-03-02T00:22:19;12.37;;;10.13;;
8594;SDS011;4335;48.860;9.198;2024-03-02T00:24:48;12.07;;;10.67;;
8594;SDS011;4335;48.860;9.198;2024-03-02T00:27:32;14.03;;;10.37;;
8594;SDS011;4335;48.860;9.198;2024-03-02T00:30:07;12.33;;;10.47;;
8594;SDS011;4335;48.860;9.198;2024-03-02T00:33:07;14.10;;;11.77;;
8594;SDS011;4335;48.860;9.198;2024-03-02T00:35:45;11.27;;;9.37;;
8594;SDS011;4335;48.860;9.198;2024-03-02T00:38:12;16.07;;;11.70;;
8594;SDS011;4335;48.860;9.198;2024-03-02T00:40:45;13.40;;;10.90;;
8594;SDS011;4335;48.860;9.198;2024-03-02T00:43:20;12.10;;;9.70;;
8594;SDS011;4335;48.860;9.198;2024-03-02T00:46:21;14.10;;;10.67;;
8594;SDS011;4335;48.860;9.198;2024-03-02T00:48:54;13.30;;;10.17;;
8594;SDS011;4335;48.860;9.198;2024-03-02T00:51:30;12.80;;;10.30;;
8594;SDS011;4335;48.860;9.198;2024-03-02T00:54:05;14.37;;;11.77;;
8594;SDS011;4335;48.860;9.198;2024-03-02T00:56:35;14.90;;;10.30;;
8594;SDS011;4335;48.860;9.198;2024-03-02T00:59:03;13.17;;;10.97;;
8594;SDS011;4335;48.860;9.198;2024-03-02T01:01:31;13.37;;;10.47;;
8594;SDS011;4335;48.860;9.198;2024-03-02T01:04:00;16.37;;;12.50;;
8594;SDS011;4335;48.860;9.198;2024-03-02T01:06:27;15.47;;;11.43;;
8594;SDS011;4335;48.860;9.198;2024-03-02T01:08:54;17.20;;;12.03;;
8594;SDS011;4335;48.860;9.198;2024-03-02T01:11:22;14.67;;;11.23;;
8594;SDS011;4335;48.860;9.198;2024-03-02T01:13:49;13.73;;;10.57;;
8594;SDS011;4335;48.860;9.198;2024-03-02T01:16:16;14.37;;;10.93;;
8594;SDS011;4335;48.860;9.198;2024-03-02T01:18:46;15.90;;;12.03;;
8594;SDS011;4335;48.860;9.198;2024-03-02T01:21:15;13.33;;;10.27;;
8594;SDS011;4335;48.860;9.198;2024-03-02T01:23:43;13.83;;;10.17;;
8594;SDS011;4335;48.860;9.198;2024-03-02T01:26:10;15.07;;;10.73;;
8594;SDS011;4335;48.860;9.198;2024-03-02T01:28:40;14.27;;;10.70;;
8594;SDS011;4335;48.860;9.198;2024-03-02T01:31:08;14.13;;;11.87;;
8594;SDS011;4335;48.860;9.198;2024-03-02T01:33:39;12.63;;;10.33;;
8594;SDS011;4335;48.860;9.198;2024-03-02T01:36:06;14.00;;;11.00;;
8594;SDS011;4335;48.860;9.198;2024-03-02T01:38:41;13.53;;;10.80;;
8594;SDS011;4335;48.860;9.198;2024-03-02T01:41:08;15.13;;;11.53;;
8594;SDS011;4335;48.860;9.198;2024-03-02T01:43:42;14.00;;;10.67;;
8594;SDS011;4335;48.860;9.198;2024-03-02T01:46:16;13.40;;;10.50;;
8594;SDS011;4335;48.860;9.198;2024-03-02T01:48:53;11.23;;;9.73;;
8594;SDS011;4335;48.860;9.198;2024-03-02T01:51:20;14.57;;;10.33;;
8594;SDS011;4335;48.860;9.198;2024-03-02T01:53:49;12.23;;;10.73;;
8594;SDS011;4335;48.860;9.198;2024-03-02T01:56:16;12.93;;;9.97;;
8594;SDS011;4335;48.860;9.198;2024-03-02T01:58:47;12.53;;;9.93;;
8594;SDS011;4335;48.860;9.198;2024-03-02T02:01:14;13.03;;;10.27;;
8594;SDS011;4335;48.860;9.198;2024-03-02T02:03:42;13.27;;;11.43;;
8594;SDS011;4335;48.860;9.198;2024-03-02T02:06:16;15.37;;;10.83;;
8594;SDS011;4335;48.860;9.198;2024-03-02T02:08:44;14.00;;;10.77;;
8594;SDS011;4335;48.860;9.198;2024-03-02T02:11:15;12.93;;;10.03;;
8594;SDS011;4335;48.860;9.198;2024-03-02T02:13:43;16.63;;;10.27;;
8594;SDS011;4335;48.860;9.198;2024-03-02T02:16:14;14.70;;;10.40;;
8594;SDS011;4335;48.860;9.198;2024-03-02T02:18:42;14.50;;;10.87;;
8594;SDS011;4335;48.860;9.198;2024-03-02T02:21:09;13.57;;;10.70;;
8594;SDS011;4335;48.860;9.198;2024-03-02T02:23:43;12.40;;;10.00;;
8594;SDS011;4335;48.860;9.198;2024-03-02T02:26:19;14.93;;;10.73;;
8594;SDS011;4335;48.860;9.198;2024-03-02T02:28:52;14.63;;;10.67;;
8594;SDS011;4335;48.860;9.198;2024-03-02T02:31:19;13.97;;;10.20;;
8594;SDS011;4335;48.860;9.198;2024-03-02T02:33:47;13.30;;;11.00;;
8594;SDS011;4335;48.860;9.198;2024-03-02T02:36:17;15.87;;;10.80;;
8594;SDS011;4335;48.860;9.198;2024-03-02T02:39:02;14.10;;;10.50;;
8594;SDS011;4335;48.860;9.198;2024-03-02T02:41:30;13.23;;;10.57;;
8594;SDS011;4335;48.860;9.198;2024-03-02T02:44:04;12.37;;;10.27;;
8594;SDS011;4335;48.860;9.198;2024-03-02T02:46:31;12.07;;;9.80;;
8594;SDS011;4335;48.860;9.198;2024-03-02T02:48:59;12.53;;;10.30;;
8594;SDS011;4335;48.860;9.198;2024-03-02T02:51:26;15.47;;;11.13;;
8594;SDS011;4335;48.860;9.198;2024-03-02T02:53:56;14.07;;;10.60;;
8594;SDS011;4335;48.860;9.198;2024-03-02T02:56:25;14.27;;;10.83;;
8594;SDS011;4335;48.860;9.198;2024-03-02T02:58:52;15.23;;;10.83;;
8594;SDS011;4335;48.860;9.198;2024-03-02T03:01:23;15.70;;;10.80;;
8594;SDS011;4335;48.860;9.198;2024-03-02T03:03:56;14.63;;;10.90;;
8594;SDS011;4335;48.860;9.198;2024-03-02T03:06:23;12.43;;;10.40;;
8594;SDS011;4335;48.860;9.198;2024-03-02T03:08:54;16.90;;;10.53;;
8594;SDS011;4335;48.860;9.198;2024-03-02T03:11:21;13.33;;;10.50;;
8594;SDS011;4335;48.860;9.198;2024-03-02T03:13:53;11.80;;;9.60;;
8594;SDS011;4335;48.860;9.198;2024-03-02T03:16:20;13.83;;;10.70;;
8594;SDS011;4335;48.860;9.198;2024-03-02T03:18:48;13.83;;;10.30;;
8594;SDS011;4335;48.860;9.198;2024-03-02T03:21:21;13.83;;;10.67;;
8594;SDS011;4335;48.860;9.198;2024-03-02T03:23:48;16.47;;;10.97;;
8594;SDS011;4335;48.860;9.198;2024-03-02T03:26:16;12.97;;;10.70;;
8594;SDS011;4335;48.860;9.198;2024-03-02T03:28:43;14.83;;;11.43;;
8594;SDS011;4335;48.860;9.198;2024-03-02T03:31:15;13.60;;;10.93;;
8594;SDS011;4335;48.860;9.198;2024-03-02T03:33:42;13.57;;;9.70;;
8594;SDS011;4335;48.860;9.198;2024-03-02T03:36:12;16.00;;;10.87;;
8594;SDS011;4335;48.860;9.198;2024-03-02T03:38:39;14.20;;;10.20;;
8594;SDS011;4335;48.860;9.198;2024-03-02T03:41:06;16.30;;;10.80;;
8594;SDS011;4335;48.860;9.198;2024-03-02T03:43:34;14.63;;;10.87;;
8594;SDS011;4335;48.860;9.198;2024-03-02T03:46:05;15.27;;;11.63;;
8594;SDS011;4335;48.860;9.198;2024-03-02T03:48:34;17.07;;;11.17;;
8594;SDS011;4335;48.860;9.198;2024-03-02T03:51:02;14.40;;;10.63;;
8594;SDS011;4335;48.860;9.198;2024-03-02T03:53:35;13.07;;;10.50;;
8594;SDS011;4335;48.860;9.198;2024-03-02T03:56:03;13.23;;;11.30;;
8594;SDS011;4335;48.860;9.198;2024-03-02T03:58:30;14.17;;;10.43;;
8594;SDS011;4335;48.860;9.198;2024-03-02T04:01:01;16.50;;;11.63;;
8594;SDS011;4335;48.860;9.198;2024-03-02T04:03:34;14.37;;;10.97;;
8594;SDS011;4335;48.860;9.198;2024-03-02T04:06:04;15.97;;;11.50;;
8594;SDS011;4335;48.860;9.198;2024-03-02T04:08:35;17.00;;;12.63;;
8594;SDS011;4335;48.860;9.198;2024-03-02T04:11:02;14.57;;;10.40;;
8594;SDS011;4335;48.860;9.198;2024-03-02T04:13:33;15.80;;;11.97;;
8594;SDS011;4335;48.860;9.198;2024-03-02T04:16:00;14.53;;;11.73;;
8594;SDS011;4335;48.860;9.198;2024-03-02T04:18:29;15.57;;;11.63;;
8594;SDS011;4335;48.860;9.198;2024-03-02T04:21:06;14.47;;;11.13;;
8594;SDS011;4335;48.860;9.198;2024-03-02T04:23:33;18.87;;;14.17;;
8594;SDS011;4335;48.860;9.198;2024-03-02T04:26:01;14.53;;;11.80;;
8594;SDS011;4335;48.860;9.198;2024-03-02T04:28:31;13.43;;;10.53;;
8594;SDS011;4335;48.860;9.198;2024-03-02T04:30:58;14.00;;;10.37;;
8594;SDS011;4335;48.860;9.198;2024-03-02T04:33:26;12.97;;;10.63;;
8594;SDS011;4335;48.860;9.198;2024-03-02T04:35:53;14.80;;;10.47;;
8594;SDS011;4335;48.860;9.198;2024-03-02T04:38:22;15.30;;;11.37;;
8594;SDS011;4335;48.860;9.198;2024-03-02T04:40:52;13.57;;;11.03;;
8594;SDS011;4335;48.860;9.198;2024-03-02T04:43:20;14.47;;;10.60;;
8594;SDS011;4335;48.860;9.198;2024-03-02T04:45:56;16.97;;;10.53;;
8594;SDS011;4335;48.860;9.198;2024-03-02T04:48:24;14.50;;;10.90;;
8594;SDS011;4335;48.860;9.198;2024-03-02T04:50:51;15.47;;;11.33;;
8594;SDS011;4335;48.860;9.198;2024-03-02T04:53:19;13.77;;;11.23;;
8594;SDS011;4335;48.860;9.198;2024-03-02T04:55:48;15.97;;;10.40;;
8594;SDS011;4335;48.860;9.198;2024-03-02T04:58:41;16.87;;;11.47;;
8594;SDS011;4335;48.860;9.198;2024-03-02T05:01:08;13.70;;;10.20;;
8594;SDS011;4335;48.860;9.198;2024-03-02T05:03:39;14.43;;;11.30;;
8594;SDS011;4335;48.860;9.198;2024-03-02T05:06:06;14.07;;;11.47;;
8594;SDS011;4335;48.860;9.198;2024-03-02T05:08:33;14.67;;;10.47;;
8594;SDS011;4335;48.860;9.198;2024-03-02T05:11:04;13.57;;;11.07;;
8594;SDS011;4335;48.860;9.198;2024-03-02T05:13:48;15.20;;;10.03;;
8594;SDS011;4335;48.860;9.198;2024-03-02T05:16:16;14.13;;;10.40;;
8594;SDS011;4335;48.860;9.198;2024-03-02T05:18:43;14.23;;;10.97;;
8594;SDS011;4335;48.860;9.198;2024-03-02T05:21:11;13.33;;;10.23;;
8594;SDS011;4335;48.860;9.198;2024-03-02T05:23:45;15.27;;;11.90;;
8594;SDS011;4335;48.860;9.198;2024-03-02T05:26:17;14.93;;;10.97;;
8594;SDS011;4335;48.860;9.198;2024-03-02T05:28:53;16.00;;;11.47;;
8594;SDS011;4335;48.860;9.198;2024-03-02T05:31:30;14.10;;;10.07;;
8594;SDS011;4335;48.860;9.198;2024-03-02T05:33:57;14.10;;;11.13;;
8594;SDS011;4335;48.860;9.198;2024-03-02T05:36:28;13.93;;;9.93;;
8594;SDS011;4335;48.860;9.198;2024-03-02T05:38:55;12.17;;;10.67;;
8594;SDS011;4335;48.860;9.198;2024-03-02T05:41:30;15.03;;;11.33;;
8594;SDS011;4335;48.860;9.198;2024-03-02T05:43:57;15.07;;;11.40;;
8594;SDS011;4335;48.860;9.198;2024-03-02T05:46:25;13.67;;;10.73;;
8594;SDS011;4335;48.860;9.198;2024-03-02T05:48:52;14.57;;;10.13;;
8594;SDS011;4335;48.860;9.198;2024-03-02T05:51:22;15.50;;;11.37;;
8594;SDS011;4335;48.860;9.198;2024-03-02T05:53:55;15.03;;;11.00;;
8594;SDS011;4335;48.860;9.198;2024-03-02T05:56:25;18.47;;;12.60;;
8594;SDS011;4335;48.860;9.198;2024-03-02T05:59:09;16.10;;;11.13;;
8594;SDS011;4335;48.860;9.198;2024-03-02T06:01:43;14.30;;;11.93;;
8594;SDS011;4335;48.860;9.198;2024-03-02T06:04:11;17.10;;;11.47;;
8594;SDS011;4335;48.860;9.198;2024-03-02T06:06:42;14.77;;;10.73;;
8594;SDS011;4335;48.860;9.198;2024-03-02T06:09:09;14.90;;;11.70;;
8594;SDS011;4335;48.860;9.198;2024-03-02T06:11:39;17.50;;;12.27;;
8594;SDS011;4335;48.860;9.198;2024-03-02T06:14:11;15.83;;;12.07;;
8594;SDS011;4335;48.860;9.198;2024-03-02T06:16:41;15.70;;;11.87;;
8594;SDS011;4335;48.860;9.198;2024-03-02T06:19:09;18.30;;;13.10;;
8594;SDS011;4335;48.860;9.198;2024-03-02T06:21:36;15.33;;;12.23;;
8594;SDS011;4335;48.860;9.198;2024-03-02T06:24:05;16.43;;;11.93;;
8594;SDS011;4335;48.860;9.198;2024-03-02T06:26:33;16.80;;;12.00;;
8594;SDS011;4335;48.860;9.198;2024-03-02T06:29:07;15.83;;;11.67;;
8594;SDS011;4335;48.860;9.198;2024-03-02T06:31:36;16.10;;;11.97;;
8594;SDS011;4335;48.860;9.198;2024-03-02T06:34:07;17.60;;;11.90;;
8594;SDS011;4335;48.860;9.198;2024-03-02T06:36:40;16.97;;;12.03;;
8594;SDS011;4335;48.860;9.198;2024-03-02T06:39:07;17.40;;;12.60;;
8594;SDS011;4335;48.860;9.198;2024-03-02T06:41:38;17.03;;;11.87;;
8594;SDS011;4335;48.860;9.198;2024-03-02T06:44:05;19.27;;;12.87;;
8594;SDS011;4335;48.860;9.198;2024-03-02T06:46:40;18.40;;;13.43;;
8594;SDS011;4335;48.860;9.198;2024-03-02T06:49:08;23.60;;;13.57;;
8594;SDS011;4335;48.860;9.198;2024-03-02T06:51:45;17.53;;;13.50;;
8594;SDS011;4335;48.860;9.198;2024-03-02T06:54:15;18.27;;;12.57;;
8594;SDS011;4335;48.860;9.198;2024-03-02T06:56:45;16.33;;;12.53;;
8594;SDS011;4335;48.860;9.198;2024-03-02T06:59:13;18.50;;;12.40;;
8594;SDS011;4335;48.860;9.198;2024-03-02T07:01:42;17.93;;;13.17;;
8594;SDS011;4335;48.860;9.198;2024-03-02T07:04:15;18.27;;;12.73;;
8594;SDS011;4335;48.860;9.198;2024-03-02T07:06:52;16.10;;;12.30;;
8594;SDS011;4335;48.860;9.198;2024-03-02T07:09:21;15.67;;;11.20;;
8594;SDS011;4335;48.860;9.198;2024-03-02T07:11:49;15.43;;;11.53;;
8594;SDS011;4335;48.860;9.198;2024-03-02T07:14:16;18.27;;;11.87;;
8594;SDS011;4335;48.860;9.198;2024-03-02T07:16:45;14.90;;;11.03;;
8594;SDS011;4335;48.860;9.198;2024-03-02T07:19:15;18.03;;;12.97;;
8594;SDS011;4335;48.860;9.198;2024-03-02T07:21:43;16.63;;;12.37;;
8594;SDS011;4335;48.860;9.198;2024-03-02T07:24:10;15.67;;;12.00;;
8594;SDS011;4335;48.860;9.198;2024-03-02T07:26:41;14.53;;;11.47;;
8594;SDS011;4335;48.860;9.198;2024-03-02T07:29:09;16.33;;;12.43;;
8594;SDS011;4335;48.860;9.198;2024-03-02T07:31:42;14.33;;;11.93;;
8594;SDS011;4335;48.860;9.198;2024-03-02T07:34:11;18.87;;;12.47;;
8594;SDS011;4335;48.860;9.198;2024-03-02T07:36:44;13.87;;;10.90;;
8594;SDS011;4335;48.860;9.198;2024-03-02T07:39:10;14.63;;;11.30;;
8594;SDS011;4335;48.860;9.198;2024-03-02T07:41:38;15.10;;;11.67;;
8594;SDS011;4335;48.860;9.198;2024-03-02T07:44:05;15.30;;;11.20;;
8594;SDS011;4335;48.860;9.198;2024-03-02T07:46:36;15.47;;;11.70;;
8594;SDS011;4335;48.860;9.198;2024-03-02T07:49:05;16.97;;;11.47;;
8594;SDS011;4335;48.860;9.198;2024-03-02T07:51:38;13.50;;;10.00;;
8594;SDS011;4335;48.860;9.198;2024-03-02T07:54:09;12.90;;;10.33;;
8594;SDS011;4335;48.860;9.198;2024-03-02T07:56:42;13.80;;;10.23;;
8594;SDS011;4335;48.860;9.198;2024-03-02T07:59:10;12.53;;;10.10;;
8594;SDS011;4335;48.860;9.198;2024-03-02T08:01:43;12.83;;;10.37;;
8594;SDS011;4335;48.860;9.198;2024-03-02T08:04:12;11.03;;;9.00;;
8594;SDS011;4335;48.860;9.198;2024-03-02T08:06:39;10.40;;;8.77;;
8594;SDS011;4335;48.860;9.198;2024-03-02T08:09:07;11.10;;;8.60;;
8594;SDS011;4335;48.860;9.198;2024-03-02T08:11:45;9.83;;;8.27;;
8594;SDS011;4335;48.860;9.198;2024-03-02T08:14:15;12.17;;;9.27;;
8594;SDS011;4335;48.860;9.198;2024-03-02T08:16:43;12.10;;;8.33;;
8594;SDS011;4335;48.860;9.198;2024-03-02T08:19:12;9.70;;;7.97;;
8594;SDS011;4335;48.860;9.198;2024-03-02T08:21:39;9.90;;;8.00;;
8594;SDS011;4335;48.860;9.198;2024-03-02T08:24:07;12.53;;;8.37;;
8594;SDS011;4335;48.860;9.198;2024-03-02T08:26:34;9.40;;;7.90;;
8594;SDS011;4335;48.860;9.198;2024-03-02T08:29:02;10.70;;;8.40;;
8594;SDS011;4335;48.860;9.198;2024-03-02T08:31:29;11.90;;;8.53;;
8594;SDS011;4335;48.860;9.198;2024-03-02T08:33:59;10.73;;;8.17;;
8594;SDS011;4335;48.860;9.198;2024-03-02T08:36:28;8.23;;;7.43;;
8594;SDS011;4335;48.860;9.198;2024-03-02T08:39:05;10.80;;;7.97;;
8594;SDS011;4335;48.860;9.198;2024-03-02T08:41:43;8.60;;;7.37;;
8594;SDS011;4335;48.860;9.198;2024-03-02T08:44:11;8.63;;;7.07;;
8594;SDS011;4335;48.860;9.198;2024-03-02T08:46:42;7.50;;;6.70;;
8594;SDS011;4335;48.860;9.198;2024-03-02T08:49:10;9.17;;;7.03;;
8594;SDS011;4335;48.860;9.198;2024-03-02T08:51:39;10.77;;;7.17;;
8594;SDS011;4335;48.860;9.198;2024-03-02T08:54:06;8.90;;;6.70;;
8594;SDS011;4335;48.860;9.198;2024-03-02T08:56:34;7.67;;;6.87;;
8594;SDS011;4335;48.860;9.198;2024-03-02T08:59:05;7.00;;;5.83;;
8594;SDS011;4335;48.860;9.198;2024-03-02T09:01:32;7.13;;;6.20;;
8594;SDS011;4335;48.860;9.198;2024-03-02T09:04:03;7.50;;;6.03;;
8594;SDS011;4335;48.860;9.198;2024-03-02T09:06:31;7.40;;;5.10;;
8594;SDS011;4335;48.860;9.198;2024-03-02T09:08:59;6.87;;;5.93;;
8594;SDS011;4335;48.860;9.198;2024-03-02T09:11:30;6.77;;;5.80;;
8594;SDS011;4335;48.860;9.198;2024-03-02T09:13:58;7.27;;;5.43;;
8594;SDS011;4335;48.860;9.198;2024-03-02T09:16:25;6.60;;;5.30;;
8594;SDS011;4335;48.860;9.198;2024-03-02T09:18:56;7.20;;;5.10;;
8594;SDS011;4335;48.860;9.198;2024-03-02T09:21:23;6.67;;;5.47;;
8594;SDS011;4335;48.860;9.198;2024-03-02T09:23:56;6.37;;;5.23;;
8594;SDS011;4335;48.860;9.198;2024-03-02T09:26:25;7.80;;;5.53;;
8594;SDS011;4335;48.860;9.198;2024-03-02T09:28:53;5.80;;;5.20;;
8594;SDS011;4335;48.860;9.198;2024-03-02T09:31:23;7.80;;;5.80;;
8594;SDS011;4335;48.860;9.198;2024-03-02T09:33:53;5.57;;;4.97;;
8594;SDS011;4335;48.860;9.198;2024-03-02T09:36:24;5.37;;;4.87;;
8594;SDS011;4335;48.860;9.198;2024-03-02T09:38:54;6.20;;;5.43;;
8594;SDS011;4335;48.860;9.198;2024-03-02T09:41:21;6.23;;;5.30;;
8594;SDS011;4335;48.860;9.198;2024-03-02T09:43:51;7.47;;;5.53;;
8594;SDS011;4335;48.860;9.198;2024-03-02T09:46:21;6.97;;;5.90;;
8594;SDS011;4335;48.860;9.198;2024-03-02T09:48:49;5.80;;;5.20;;
8594;SDS011;4335;48.860;9.198;2024-03-02T09:51:16;5.80;;;4.80;;
8594;SDS011;4335;48.860;9.198;2024-03-02T09:53:45;6.00;;;5.40;;
8594;SDS011;4335;48.860;9.198;2024-03-02T09:56:16;6.43;;;4.97;;
8594;SDS011;4335;48.860;9.198;2024-03-02T09:58:44;6.63;;;5.73;;
8594;SDS011;4335;48.860;9.198;2024-03-02T10:01:13;8.17;;;4.93;;
8594;SDS011;4335;48.860;9.198;2024-03-02T10:03:44;5.67;;;4.80;;
8594;SDS011;4335;48.860;9.198;2024-03-02T10:06:23;5.47;;;4.93;;
8594;SDS011;4335;48.860;9.198;2024-03-02T10:08:51;5.50;;;5.00;;
8594;SDS011;4335;48.860;9.198;2024-03-02T10:11:29;7.13;;;4.73;;
8594;SDS011;4335;48.860;9.198;2024-03-02T10:14:07;5.73;;;4.77;;
8594;SDS011;4335;48.860;9.198;2024-03-02T10:16:37;4.47;;;3.87;;
8594;SDS011;4335;48.860;9.198;2024-03-02T10:19:15;4.57;;;3.77;;
8594;SDS011;4335;48.860;9.198;2024-03-02T10:21:47;4.20;;;3.80;;
8594;SDS011;4335;48.860;9.198;2024-03-02T10:24:19;3.70;;;3.03;;
8594;SDS011;4335;48.860;9.198;2024-03-02T10:26:56;4.03;;;3.47;;
8594;SDS011;4335;48.860;9.198;2024-03-02T10:29:23;3.87;;;3.50;;
8594;SDS011;4335;48.860;9.198;2024-03-02T10:31:55;4.28;;;3.88;;
8594;SDS011;4335;48.860;9.198;2024-03-02T10:34:27;4.07;;;3.38;;
8594;SDS011;4335;48.860;9.198;2024-03-02T10:36:57;4.88;;;3.63;;
8594;SDS011;4335;48.860;9.198;2024-03-02T10:39:26;3.55;;;3.25;;
8594;SDS011;4335;48.860;9.198;2024-03-02T10:41:54;4.05;;;3.65;;
8594;SDS011;4335;48.860;9.198;2024-03-02T10:44:23;4.32;;;3.10;;
8594;SDS011;4335;48.860;9.198;2024-03-02T10:46:51;3.95;;;3.13;;
8594;SDS011;4335;48.860;9.198;2024-03-02T10:49:22;3.55;;;3.25;;
8594;SDS011;4335;48.860;9.198;2024-03-02T10:51:50;3.05;;;2.75;;
8594;SDS011;4335;48.860;9.198;2024-03-02T10:54:18;3.58;;;2.53;;
8594;SDS011;4335;48.860;9.198;2024-03-02T10:56:51;3.00;;;2.63;;
8594;SDS011;4335;48.860;9.198;2024-03-02T10:59:21;3.10;;;2.80;;
8594;SDS011;4335;48.860;9.198;2024-03-02T11:01:57;2.47;;;2.10;;
8594;SDS011;4335;48.860;9.198;2024-03-02T11:04:31;2.08;;;1.90;;
8594;SDS011;4335;48.860;9.198;2024-03-02T11:07:02;2.35;;;2.15;;
8594;SDS011;4335;48.860;9.198;2024-03-02T11:09:32;3.25;;;2.58;;
8594;SDS011;4335;48.860;9.198;2024-03-02T11:12:02;2.85;;;2.65;;
8594;SDS011;4335;48.860;9.198;2024-03-02T11:14:33;2.78;;;2.40;;
8594;SDS011;4335;48.860;9.198;2024-03-02T11:17:04;2.97;;;2.27;;
8594;SDS011;4335;48.860;9.198;2024-03-02T11:19:35;2.10;;;1.90;;
8594;SDS011;4335;48.860;9.198;2024-03-02T11:22:10;2.70;;;2.27;;
8594;SDS011;4335;48.860;9.198;2024-03-02T11:24:47;2.30;;;1.90;;
8594;SDS011;4335;48.860;9.198;2024-03-02T11:27:20;2.43;;;1.93;;
8594;SDS011;4335;48.860;9.198;2024-03-02T11:33:24;1.70;;;1.60;;
8594;SDS011;4335;48.860;9.198;2024-03-02T11:35:57;2.70;;;2.50;;
8594;SDS011;4335;48.860;9.198;2024-03-02T11:38:29;2.50;;;2.30;;
8594;SDS011;4335;48.860;9.198;2024-03-02T11:41:01;2.33;;;2.10;;
8594;SDS011;4335;48.860;9.198;2024-03-02T11:43:32;3.03;;;1.87;;
8594;SDS011;4335;48.860;9.198;2024-03-02T11:46:00;2.40;;;2.20;;
8594;SDS011;4335;48.860;9.198;2024-03-02T11:48:32;2.40;;;2.20;;
8594;SDS011;4335;48.860;9.198;2024-03-02T11:51:08;2.40;;;2.17;;
8594;SDS011;4335;48.860;9.198;2024-03-02T11:53:41;2.43;;;2.23;;
8594;SDS011;4335;48.860;9.198;2024-03-02T11:56:12;2.67;;;2.23;;
8594;SDS011;4335;48.860;9.198;2024-03-02T11:58:43;3.43;;;2.47;;
8594;SDS011;4335;48.860;9.198;2024-03-02T12:01:15;3.47;;;2.10;;
8594;SDS011;4335;48.860;9.198;2024-03-02T12:03:43;4.23;;;2.03;;
8594;SDS011;4335;48.860;9.198;2024-03-02T12:06:13;2.30;;;2.10;;
8594;SDS011;4335;48.860;9.198;2024-03-02T12:08:52;2.13;;;1.93;;
8594;SDS011;4335;48.860;9.198;2024-03-02T12:11:20;3.50;;;2.30;;
8594;SDS011;4335;48.860;9.198;2024-03-02T12:13:53;2.90;;;2.60;;
8594;SDS011;4335;48.860;9.198;2024-03-02T12:16:23;3.20;;;1.93;;
8594;SDS011;4335;48.860;9.198;2024-03-02T12:18:51;2.20;;;2.00;;
8594;SDS011;4335;48.860;9.198;2024-03-02T12:21:19;1.77;;;1.60;;
8594;SDS011;4335;48.860;9.198;2024-03-02T12:23:49;2.10;;;1.80;;
8594;SDS011;4335;48.860;9.198;2024-03-02T12:26:17;2.33;;;1.90;;
8594;SDS011;4335;48.860;9.198;2024-03-02T12:28:45;1.80;;;1.70;;
8594;SDS011;4335;48.860;9.198;2024-03-02T12:31:15;3.70;;;1.90;;
8594;SDS011;4335;48.860;9.198;2024-03-02T12:33:43;1.50;;;1.40;;
8594;SDS011;4335;48.860;9.198;2024-03-02T12:36:10;1.87;;;1.60;;
8594;SDS011;4335;48.860;9.198;2024-03-02T12:38:44;1.60;;;1.40;;
8594;SDS011;4335;48.860;9.198;2024-03-02T12:41:14;2.00;;;1.47;;
8594;SDS011;4335;48.860;9.198;2024-03-02T12:43:48;1.50;;;1.20;;
8594;SDS011;4335;48.860;9.198;2024-03-02T12:46:22;2.23;;;1.40;;
8594;SDS011;4335;48.860;9.198;2024-03-02T12:48:52;1.63;;;1.50;;
8594;SDS011;4335;48.860;9.198;2024-03-02T12:51:23;1.73;;;1.40;;
8594;SDS011;4335;48.860;9.198;2024-03-02T12:53:56;1.43;;;1.33;;
8594;SDS011;4335;48.860;9.198;2024-03-02T12:56:24;2.90;;;1.30;;
8594;SDS011;4335;48.860;9.198;2024-03-02T12:58:58;1.07;;;0.97;;
8594;SDS011;4335;48.860;9.198;2024-03-02T13:01:26;1.80;;;1.40;;
8594;SDS011;4335;48.860;9.198;2024-03-02T13:03:53;1.33;;;1.23;;
8594;SDS011;4335;48.860;9.198;2024-03-02T13:06:22;1.87;;;1.27;;
8594;SDS011;4335;48.860;9.198;2024-03-02T13:08:57;1.97;;;1.37;;
8594;SDS011;4335;48.860;9.198;2024-03-02T13:11:27;1.50;;;1.23;;
8594;SDS011;4335;48.860;9.198;2024-03-02T13:14:00;1.50;;;1.10;;
8594;SDS011;4335;48.860;9.198;2024-03-02T13:16:29;1.70;;;1.10;;
8594;SDS011;4335;48.860;9.198;2024-03-02T13:18:56;1.90;;;1.03;;
8594;SDS011;4335;48.860;9.198;2024-03-02T13:21:24;1.17;;;1.07;;
8594;SDS011;4335;48.860;9.198;2024-03-02T13:23:55;1.20;;;1.10;;
8594;SDS011;4335;48.860;9.198;2024-03-02T13:26:24;1.17;;;0.90;;
8594;SDS011;4335;48.860;9.198;2024-03-02T13:28:51;2.10;;;1.10;;
8594;SDS011;4335;48.860;9.198;2024-03-02T13:31:19;1.90;;;1.20;;
8594;SDS011;4335;48.860;9.198;2024-03-02T13:33:47;1.03;;;0.93;;
8594;SDS011;4335;48.860;9.198;2024-03-02T13:36:14;2.80;;;1.20;;
8594;SDS011;4335;48.860;9.198;2024-03-02T13:38:43;1.57;;;1.43;;
8594;SDS011;4335;48.860;9.198;2024-03-02T13:41:22;1.43;;;1.10;;
8594;SDS011;4335;48.860;9.198;2024-03-02T13:43:57;1.00;;;0.90;;
8594;SDS011;4335;48.860;9.198;2024-03-02T13:46:32;1.50;;;1.10;;
8594;SDS011;4335;48.860;9.198;2024-03-02T13:49:02;0.80;;;0.80;;
8594;SDS011;4335;48.860;9.198;2024-03-02T13:51:33;1.20;;;1.10;;
8594;SDS011;4335;48.860;9.198;2024-03-02T13:54:03;1.27;;;1.10;;
8594;SDS011;4335;48.860;9.198;2024-03-02T13:56:35;1.50;;;1.40;;
8594;SDS011;4335;48.860;9.198;2024-03-02T13:59:04;1.43;;;1.30;;
8594;SDS011;4335;48.860;9.198;2024-03-02T14:01:32;3.63;;;1.40;;
8594;SDS011;4335;48.860;9.198;2024-03-02T14:04:02;1.03;;;0.93;;
8594;SDS011;4335;48.860;9.198;2024-03-02T14:06:30;1.40;;;1.30;;
8594;SDS011;4335;48.860;9.198;2024-03-02T14:08:58;1.10;;;1.00;;
8594;SDS011;4335;48.860;9.198;2024-03-02T14:11:28;1.77;;;1.63;;
8594;SDS011;4335;48.860;9.198;2024-03-02T14:13:57;1.37;;;1.00;;
8594;SDS011;4335;48.860;9.198;2024-03-02T14:16:25;1.13;;;1.03;;
8594;SDS011;4335;48.860;9.198;2024-03-02T14:18:55;1.03;;;0.93;;
8594;SDS011;4335;48.860;9.198;2024-03-02T14:21:24;2.07;;;1.17;;
8594;SDS011;4335;48.860;9.198;2024-03-02T14:23:51;1.23;;;1.13;;
8594;SDS011;4335;48.860;9.198;2024-03-02T14:26:25;1.30;;;1.10;;
8594;SDS011;4335;48.860;9.198;2024-03-02T14:28:53;1.73;;;1.17;;
8594;SDS011;4335;48.860;9.198;2024-03-02T14:31:27;1.30;;;1.13;;
8594;SDS011;4335;48.860;9.198;2024-03-02T14:34:03;1.33;;;1.20;;
8594;SDS011;4335;48.860;9.198;2024-03-02T14:36:34;1.20;;;1.10;;
8594;SDS011;4335;48.860;9.198;2024-03-02T14:39:07;1.50;;;1.20;;
8594;SDS011;4335;48.860;9.198;2024-03-02T14:41:38;1.87;;;1.40;;
8594;SDS011;4335;48.860;9.198;2024-03-02T14:44:09;1.50;;;1.40;;
8594;SDS011;4335;48.860;9.198;2024-03-02T14:46:45;1.20;;;1.10;;
8594;SDS011;4335;48.860;9.198;2024-03-02T14:49:14;2.23;;;1.53;;
8594;SDS011;4335;48.860;9.198;2024-03-02T14:51:44;1.70;;;1.40;;
8594;SDS011;4335;48.860;9.198;2024-03-02T14:54:20;1.40;;;1.30;;
8594;SDS011;4335;48.860;9.198;2024-03-02T14:56:48;1.50;;;1.40;;
8594;SDS011;4335;48.860;9.198;2024-03-02T14:59:20;1.50;;;1.40;;
8594;SDS011;4335;48.860;9.198;2024-03-02T15:01:48;1.97;;;1.47;;
8594;SDS011;4335;48.860;9.198;2024-03-02T15:04:19;2.20;;;1.23;;
8594;SDS011;4335;48.860;9.198;2024-03-02T15:06:46;1.53;;;1.10;;
8594;SDS011;4335;48.860;9.198;2024-03-02T15:09:14;1.50;;;1.37;;
8594;SDS011;4335;48.860;9.198;2024-03-02T15:11:49;2.27;;;1.07;;
8594;SDS011;4335;48.860;9.198;2024-03-02T15:14:20;2.10;;;1.87;;
8594;SDS011;4335;48.860;9.198;2024-03-02T15:16:52;2.63;;;1.30;;
8594;SDS011;4335;48.860;9.198;2024-03-02T15:19:21;1.20;;;1.10;;
8594;SDS011;4335;48.860;9.198;2024-03-02T15:21:54;1.30;;;1.20;;
8594;SDS011;4335;48.860;9.198;2024-03-02T15:24:30;1.33;;;1.10;;